sensor_id;sensor_type;location;lat;lon;timestamp;temperature;humidity
21950;DHT22;11139;51.284;7.226;2022-09-27T00:01:23;12.30;99.90
21950;DHT22;11139;51.284;7.226;2022-09-27T00:03:51;12.30;99.90
21950;DHT22;11139;51.284;7.226;2022-09-27T00:06:19;12.20;99.90
21950;DHT22;11139;51.284;7.226;2022-09-27T00:08:46;12.30;99.90
21950;DHT22;11139;51.284;7.226;2022-09-27T00:11:54;12.20;99.90
21950;DHT22;11139;51.284;7.226;2022-09-27T00:14:01;12.20;99.90
21950;DHT22;11139;51.284;7.226;2022-09-27T00:16:28;12.30;99.90
21950;DHT22;11139;51.284;7.226;2022-09-27T00:19:00;12.20;99.90
21950;DHT22;11139;51.284;7.226;2022-09-27T00:21:27;12.20;99.90
21950;DHT22;11139;51.284;7.226;2022-09-27T00:23:54;12.20;99.90
21950;DHT22;11139;51.284;7.226;2022-09-27T00:26:19;12.20;99.90
21950;DHT22;11139;51.284;7.226;2022-09-27T00:28:45;12.20;99.90
21950;DHT22;11139;51.284;7.226;2022-09-27T00:33:45;12.20;99.90
21950;DHT22;11139;51.284;7.226;2022-09-27T00:36:11;12.20;99.90
21950;DHT22;11139;51.284;7.226;2022-09-27T00:38:38;12.20;99.90
21950;DHT22;11139;51.284;7.226;2022-09-27T00:41:04;12.20;99.90
21950;DHT22;11139;51.284;7.226;2022-09-27T00:43:41;12.20;99.90
21950;DHT22;11139;51.284;7.226;2022-09-27T00:46:07;12.20;99.90
21950;DHT22;11139;51.284;7.226;2022-09-27T00:48:33;12.20;99.90
21950;DHT22;11139;51.284;7.226;2022-09-27T00:51:00;12.20;99.90
21950;DHT22;11139;51.284;7.226;2022-09-27T00:55:54;12.20;99.90
21950;DHT22;11139;51.284;7.226;2022-09-27T00:58:22;12.20;99.90
21950;DHT22;11139;51.284;7.226;2022-09-27T01:00:50;12.20;99.90
21950;DHT22;11139;51.284;7.226;2022-09-27T01:03:22;12.20;99.90
21950;DHT22;11139;51.284;7.226;2022-09-27T01:05:49;12.20;99.90
21950;DHT22;11139;51.284;7.226;2022-09-27T01:08:14;12.20;99.90
21950;DHT22;11139;51.284;7.226;2022-09-27T01:10:48;12.10;99.90
21950;DHT22;11139;51.284;7.226;2022-09-27T01:13:22;12.10;99.90
21950;DHT22;11139;51.284;7.226;2022-09-27T01:15:52;12.20;99.90
21950;DHT22;11139;51.284;7.226;2022-09-27T01:18:44;12.10;99.90
21950;DHT22;11139;51.284;7.226;2022-09-27T01:26:48;12.10;99.90
21950;DHT22;11139;51.284;7.226;2022-09-27T01:34:17;12.10;99.90
21950;DHT22;11139;51.284;7.226;2022-09-27T01:44:43;12.10;99.90
21950;DHT22;11139;51.284;7.226;2022-09-27T01:47:13;12.10;99.90
21950;DHT22;11139;51.284;7.226;2022-09-27T01:52:12;12.10;99.90
21950;DHT22;11139;51.284;7.226;2022-09-27T01:54:41;12.10;99.90
21950;DHT22;11139;51.284;7.226;2022-09-27T01:57:08;12.10;99.90
21950;DHT22;11139;51.284;7.226;2022-09-27T01:59:38;12.10;99.90
21950;DHT22;11139;51.284;7.226;2022-09-27T02:02:07;12.10;99.90
21950;DHT22;11139;51.284;7.226;2022-09-27T02:04:33;12.10;99.90
21950;DHT22;11139;51.284;7.226;2022-09-27T02:10:02;12.10;99.90
21950;DHT22;11139;51.284;7.226;2022-09-27T02:12:30;12.00;99.90
21950;DHT22;11139;51.284;7.226;2022-09-27T02:15:11;12.10;99.90
21950;DHT22;11139;51.284;7.226;2022-09-27T02:20:26;12.00;99.90
21950;DHT22;11139;51.284;7.226;2022-09-27T02:25:42;12.10;99.90
21950;DHT22;11139;51.284;7.226;2022-09-27T02:30:52;12.00;99.90
21950;DHT22;11139;51.284;7.226;2022-09-27T02:33:28;12.00;99.90
21950;DHT22;11139;51.284;7.226;2022-09-27T02:35:55;12.00;99.90
21950;DHT22;11139;51.284;7.226;2022-09-27T02:38:21;12.00;99.90
21950;DHT22;11139;51.284;7.226;2022-09-27T02:40:47;12.00;99.90
21950;DHT22;11139;51.284;7.226;2022-09-27T02:43:13;12.00;99.90
21950;DHT22;11139;51.284;7.226;2022-09-27T02:53:51;12.00;99.90
21950;DHT22;11139;51.284;7.226;2022-09-27T02:56:26;12.00;99.90
21950;DHT22;11139;51.284;7.226;2022-09-27T03:01:50;12.00;99.90
21950;DHT22;11139;51.284;7.226;2022-09-27T03:04:24;12.00;99.90
21950;DHT22;11139;51.284;7.226;2022-09-27T03:06:51;12.00;99.90
21950;DHT22;11139;51.284;7.226;2022-09-27T03:09:20;12.00;99.90
21950;DHT22;11139;51.284;7.226;2022-09-27T03:11:45;12.00;99.90
21950;DHT22;11139;51.284;7.226;2022-09-27T03:14:11;12.00;99.90
21950;DHT22;11139;51.284;7.226;2022-09-27T03:16:36;12.00;99.90
21950;DHT22;11139;51.284;7.226;2022-09-27T03:19:02;11.90;99.90
21950;DHT22;11139;51.284;7.226;2022-09-27T03:21:28;12.00;99.90
21950;DHT22;11139;51.284;7.226;2022-09-27T03:23:53;12.00;99.90
21950;DHT22;11139;51.284;7.226;2022-09-27T03:26:19;12.00;99.90
21950;DHT22;11139;51.284;7.226;2022-09-27T03:28:44;11.90;99.90
21950;DHT22;11139;51.284;7.226;2022-09-27T03:31:10;11.90;99.90
21950;DHT22;11139;51.284;7.226;2022-09-27T03:33:35;11.90;99.90
21950;DHT22;11139;51.284;7.226;2022-09-27T03:36:01;11.90;99.90
21950;DHT22;11139;51.284;7.226;2022-09-27T03:38:27;11.90;99.90
21950;DHT22;11139;51.284;7.226;2022-09-27T03:40:53;11.90;99.90
21950;DHT22;11139;51.284;7.226;2022-09-27T03:43:19;11.90;99.90
21950;DHT22;11139;51.284;7.226;2022-09-27T03:45:44;11.90;99.90
21950;DHT22;11139;51.284;7.226;2022-09-27T03:48:10;11.90;99.90
21950;DHT22;11139;51.284;7.226;2022-09-27T03:50:36;11.90;99.90
21950;DHT22;11139;51.284;7.226;2022-09-27T03:53:01;11.90;99.90
21950;DHT22;11139;51.284;7.226;2022-09-27T03:55:27;11.90;99.90
21950;DHT22;11139;51.284;7.226;2022-09-27T03:57:52;11.90;99.90
21950;DHT22;11139;51.284;7.226;2022-09-27T04:00:18;11.80;99.90
21950;DHT22;11139;51.284;7.226;2022-09-27T04:02:43;11.90;99.90
21950;DHT22;11139;51.284;7.226;2022-09-27T04:05:09;11.90;99.90
21950;DHT22;11139;51.284;7.226;2022-09-27T04:07:35;11.90;99.90
21950;DHT22;11139;51.284;7.226;2022-09-27T04:10:02;11.90;99.90
21950;DHT22;11139;51.284;7.226;2022-09-27T04:12:28;11.90;99.90
21950;DHT22;11139;51.284;7.226;2022-09-27T04:14:54;11.90;99.90
21950;DHT22;11139;51.284;7.226;2022-09-27T04:17:20;11.90;99.90
21950;DHT22;11139;51.284;7.226;2022-09-27T04:19:45;11.90;99.90
21950;DHT22;11139;51.284;7.226;2022-09-27T04:22:11;11.80;99.90
21950;DHT22;11139;51.284;7.226;2022-09-27T04:24:37;11.80;99.90
21950;DHT22;11139;51.284;7.226;2022-09-27T04:27:03;11.80;99.90
21950;DHT22;11139;51.284;7.226;2022-09-27T04:29:29;11.80;99.90
21950;DHT22;11139;51.284;7.226;2022-09-27T04:31:54;11.80;99.90
21950;DHT22;11139;51.284;7.226;2022-09-27T04:34:20;11.80;99.90
21950;DHT22;11139;51.284;7.226;2022-09-27T04:37:05;11.80;99.90
21950;DHT22;11139;51.284;7.226;2022-09-27T04:39:32;11.80;99.90
21950;DHT22;11139;51.284;7.226;2022-09-27T04:41:57;11.80;99.90
21950;DHT22;11139;51.284;7.226;2022-09-27T04:44:23;11.80;99.90
21950;DHT22;11139;51.284;7.226;2022-09-27T04:46:48;11.80;99.90
21950;DHT22;11139;51.284;7.226;2022-09-27T04:49:14;11.80;99.90
21950;DHT22;11139;51.284;7.226;2022-09-27T04:51:39;11.80;99.90
21950;DHT22;11139;51.284;7.226;2022-09-27T04:54:05;11.80;99.90
21950;DHT22;11139;51.284;7.226;2022-09-27T04:56:31;11.80;99.90
21950;DHT22;11139;51.284;7.226;2022-09-27T04:58:56;11.80;99.90
21950;DHT22;11139;51.284;7.226;2022-09-27T05:01:23;11.80;99.90
21950;DHT22;11139;51.284;7.226;2022-09-27T05:03:48;11.80;99.90
21950;DHT22;11139;51.284;7.226;2022-09-27T05:06:14;11.70;99.90
21950;DHT22;11139;51.284;7.226;2022-09-27T05:08:40;11.70;99.90
21950;DHT22;11139;51.284;7.226;2022-09-27T05:11:05;11.70;99.90
21950;DHT22;11139;51.284;7.226;2022-09-27T05:13:31;11.70;99.90
21950;DHT22;11139;51.284;7.226;2022-09-27T05:16:00;11.70;99.90
21950;DHT22;11139;51.284;7.226;2022-09-27T05:18:27;11.70;99.90
21950;DHT22;11139;51.284;7.226;2022-09-27T05:20:52;11.70;99.90
21950;DHT22;11139;51.284;7.226;2022-09-27T05:23:18;11.70;99.90
21950;DHT22;11139;51.284;7.226;2022-09-27T05:25:44;11.70;99.90
21950;DHT22;11139;51.284;7.226;2022-09-27T05:28:10;11.70;99.90
21950;DHT22;11139;51.284;7.226;2022-09-27T05:30:35;11.70;99.90
21950;DHT22;11139;51.284;7.226;2022-09-27T05:33:01;11.70;99.90
21950;DHT22;11139;51.284;7.226;2022-09-27T05:35:26;11.70;99.90
21950;DHT22;11139;51.284;7.226;2022-09-27T05:37:53;11.70;99.90
21950;DHT22;11139;51.284;7.226;2022-09-27T05:40:19;11.60;99.90
21950;DHT22;11139;51.284;7.226;2022-09-27T05:42:49;11.60;99.90
21950;DHT22;11139;51.284;7.226;2022-09-27T05:45:15;11.60;99.90
21950;DHT22;11139;51.284;7.226;2022-09-27T05:47:40;11.60;99.90
21950;DHT22;11139;51.284;7.226;2022-09-27T05:50:06;11.70;99.90
21950;DHT22;11139;51.284;7.226;2022-09-27T05:52:34;11.60;99.90
21950;DHT22;11139;51.284;7.226;2022-09-27T05:54:59;11.60;99.90
21950;DHT22;11139;51.284;7.226;2022-09-27T05:57:25;11.60;99.90
21950;DHT22;11139;51.284;7.226;2022-09-27T05:59:50;11.60;99.90
21950;DHT22;11139;51.284;7.226;2022-09-27T06:02:16;11.60;99.90
21950;DHT22;11139;51.284;7.226;2022-09-27T06:04:42;11.60;99.90
21950;DHT22;11139;51.284;7.226;2022-09-27T06:07:08;11.60;99.90
21950;DHT22;11139;51.284;7.226;2022-09-27T06:09:34;11.60;99.90
21950;DHT22;11139;51.284;7.226;2022-09-27T06:11:59;11.60;99.90
21950;DHT22;11139;51.284;7.226;2022-09-27T06:14:25;11.60;99.90
21950;DHT22;11139;51.284;7.226;2022-09-27T06:16:51;11.60;99.90
21950;DHT22;11139;51.284;7.226;2022-09-27T06:19:19;11.60;99.90
21950;DHT22;11139;51.284;7.226;2022-09-27T06:21:49;11.60;99.90
21950;DHT22;11139;51.284;7.226;2022-09-27T06:24:16;11.60;99.90
21950;DHT22;11139;51.284;7.226;2022-09-27T06:26:41;11.60;99.90
21950;DHT22;11139;51.284;7.226;2022-09-27T06:29:07;11.60;99.90
21950;DHT22;11139;51.284;7.226;2022-09-27T06:31:33;11.50;99.90
21950;DHT22;11139;51.284;7.226;2022-09-27T06:33:58;11.50;99.90
21950;DHT22;11139;51.284;7.226;2022-09-27T06:36:24;11.50;99.90
21950;DHT22;11139;51.284;7.226;2022-09-27T06:38:50;11.50;99.90
21950;DHT22;11139;51.284;7.226;2022-09-27T06:41:15;11.50;99.90
21950;DHT22;11139;51.284;7.226;2022-09-27T06:43:41;11.50;99.90
21950;DHT22;11139;51.284;7.226;2022-09-27T06:46:07;11.50;99.90
21950;DHT22;11139;51.284;7.226;2022-09-27T06:48:32;11.50;99.90
21950;DHT22;11139;51.284;7.226;2022-09-27T06:50:58;11.50;99.90
21950;DHT22;11139;51.284;7.226;2022-09-27T06:53:24;11.50;99.90
21950;DHT22;11139;51.284;7.226;2022-09-27T06:55:50;11.50;99.90
21950;DHT22;11139;51.284;7.226;2022-09-27T06:58:16;11.50;99.90
21950;DHT22;11139;51.284;7.226;2022-09-27T07:00:59;11.50;99.90
21950;DHT22;11139;51.284;7.226;2022-09-27T07:03:25;11.50;99.90
21950;DHT22;11139;51.284;7.226;2022-09-27T07:05:56;11.50;99.90
21950;DHT22;11139;51.284;7.226;2022-09-27T07:08:22;11.50;99.90
21950;DHT22;11139;51.284;7.226;2022-09-27T07:10:49;11.50;99.90
21950;DHT22;11139;51.284;7.226;2022-09-27T07:13:14;11.50;99.90
21950;DHT22;11139;51.284;7.226;2022-09-27T07:15:40;11.50;99.90
21950;DHT22;11139;51.284;7.226;2022-09-27T07:18:06;11.50;99.90
21950;DHT22;11139;51.284;7.226;2022-09-27T07:20:32;11.50;99.90
21950;DHT22;11139;51.284;7.226;2022-09-27T07:23:01;11.50;99.90
21950;DHT22;11139;51.284;7.226;2022-09-27T07:25:26;11.40;99.90
21950;DHT22;11139;51.284;7.226;2022-09-27T07:27:52;11.50;99.90
21950;DHT22;11139;51.284;7.226;2022-09-27T07:30:18;11.40;99.90
21950;DHT22;11139;51.284;7.226;2022-09-27T07:32:44;11.40;99.90
21950;DHT22;11139;51.284;7.226;2022-09-27T07:35:10;11.40;99.90
21950;DHT22;11139;51.284;7.226;2022-09-27T07:37:36;11.40;99.90
21950;DHT22;11139;51.284;7.226;2022-09-27T07:40:03;11.40;99.90
21950;DHT22;11139;51.284;7.226;2022-09-27T07:42:31;11.40;99.90
21950;DHT22;11139;51.284;7.226;2022-09-27T07:44:56;11.40;99.90
21950;DHT22;11139;51.284;7.226;2022-09-27T07:47:22;11.30;99.90
21950;DHT22;11139;51.284;7.226;2022-09-27T07:49:49;11.40;99.90
21950;DHT22;11139;51.284;7.226;2022-09-27T07:52:16;11.40;99.90
21950;DHT22;11139;51.284;7.226;2022-09-27T07:54:41;11.30;99.90
21950;DHT22;11139;51.284;7.226;2022-09-27T07:57:07;11.30;99.90
21950;DHT22;11139;51.284;7.226;2022-09-27T07:59:33;11.30;99.90
21950;DHT22;11139;51.284;7.226;2022-09-27T08:01:58;11.30;99.90
21950;DHT22;11139;51.284;7.226;2022-09-27T08:04:24;11.30;99.90
21950;DHT22;11139;51.284;7.226;2022-09-27T08:06:50;11.30;99.90
21950;DHT22;11139;51.284;7.226;2022-09-27T08:09:15;11.30;99.90
21950;DHT22;11139;51.284;7.226;2022-09-27T08:11:41;11.30;99.90
21950;DHT22;11139;51.284;7.226;2022-09-27T08:14:09;11.30;99.90
21950;DHT22;11139;51.284;7.226;2022-09-27T08:16:35;11.30;99.90
21950;DHT22;11139;51.284;7.226;2022-09-27T08:19:00;11.30;99.90
21950;DHT22;11139;51.284;7.226;2022-09-27T08:21:26;11.30;99.90
21950;DHT22;11139;51.284;7.226;2022-09-27T08:23:51;11.30;99.90
21950;DHT22;11139;51.284;7.226;2022-09-27T08:26:18;11.30;99.90
21950;DHT22;11139;51.284;7.226;2022-09-27T08:28:45;11.30;99.90
21950;DHT22;11139;51.284;7.226;2022-09-27T08:31:11;11.30;99.90
21950;DHT22;11139;51.284;7.226;2022-09-27T08:33:36;11.30;99.90
21950;DHT22;11139;51.284;7.226;2022-09-27T08:36:02;11.30;99.90
21950;DHT22;11139;51.284;7.226;2022-09-27T08:38:28;11.30;99.90
21950;DHT22;11139;51.284;7.226;2022-09-27T08:46:15;11.30;99.90
21950;DHT22;11139;51.284;7.226;2022-09-27T08:48:46;11.20;99.90
21950;DHT22;11139;51.284;7.226;2022-09-27T08:51:14;11.30;99.90
21950;DHT22;11139;51.284;7.226;2022-09-27T08:53:49;11.20;99.90
21950;DHT22;11139;51.284;7.226;2022-09-27T08:56:15;11.20;99.90
21950;DHT22;11139;51.284;7.226;2022-09-27T09:01:14;11.20;99.90
21950;DHT22;11139;51.284;7.226;2022-09-27T09:03:51;11.20;99.90
21950;DHT22;11139;51.284;7.226;2022-09-27T09:14:37;11.20;99.90
21950;DHT22;11139;51.284;7.226;2022-09-27T09:22:28;11.20;99.90
21950;DHT22;11139;51.284;7.226;2022-09-27T09:25:01;11.20;99.90
21950;DHT22;11139;51.284;7.226;2022-09-27T09:27:52;11.20;99.90
21950;DHT22;11139;51.284;7.226;2022-09-27T09:30:22;11.20;99.90
21950;DHT22;11139;51.284;7.226;2022-09-27T09:35:18;11.20;99.90
21950;DHT22;11139;51.284;7.226;2022-09-27T09:37:47;11.20;99.90
21950;DHT22;11139;51.284;7.226;2022-09-27T09:42:54;11.20;99.90
21950;DHT22;11139;51.284;7.226;2022-09-27T09:45:23;11.20;99.90
21950;DHT22;11139;51.284;7.226;2022-09-27T09:50:17;11.10;99.90
21950;DHT22;11139;51.284;7.226;2022-09-27T09:52:48;11.20;99.90
21950;DHT22;11139;51.284;7.226;2022-09-27T09:55:24;11.20;99.90
21950;DHT22;11139;51.284;7.226;2022-09-27T09:58:10;11.20;99.90
21950;DHT22;11139;51.284;7.226;2022-09-27T10:00:39;11.20;99.90
21950;DHT22;11139;51.284;7.226;2022-09-27T10:03:05;11.10;99.90
21950;DHT22;11139;51.284;7.226;2022-09-27T10:05:31;11.10;99.90
21950;DHT22;11139;51.284;7.226;2022-09-27T10:07:59;11.10;99.90
21950;DHT22;11139;51.284;7.226;2022-09-27T10:10:25;11.10;99.90
21950;DHT22;11139;51.284;7.226;2022-09-27T10:12:50;11.10;99.90
21950;DHT22;11139;51.284;7.226;2022-09-27T10:15:23;11.10;99.90
21950;DHT22;11139;51.284;7.226;2022-09-27T10:17:50;11.10;99.90
21950;DHT22;11139;51.284;7.226;2022-09-27T10:20:23;11.20;99.90
21950;DHT22;11139;51.284;7.226;2022-09-27T10:22:52;11.10;99.90
21950;DHT22;11139;51.284;7.226;2022-09-27T10:25:19;11.10;99.90
21950;DHT22;11139;51.284;7.226;2022-09-27T10:27:49;11.10;99.90
21950;DHT22;11139;51.284;7.226;2022-09-27T10:30:34;11.10;99.90
21950;DHT22;11139;51.284;7.226;2022-09-27T10:33:04;11.10;99.90
21950;DHT22;11139;51.284;7.226;2022-09-27T10:35:38;11.20;99.90
21950;DHT22;11139;51.284;7.226;2022-09-27T10:38:25;11.20;99.90
21950;DHT22;11139;51.284;7.226;2022-09-27T10:40:51;11.20;99.90
21950;DHT22;11139;51.284;7.226;2022-09-27T10:43:25;11.20;99.90
21950;DHT22;11139;51.284;7.226;2022-09-27T10:45:58;11.20;99.90
21950;DHT22;11139;51.284;7.226;2022-09-27T10:48:24;11.10;99.90
21950;DHT22;11139;51.284;7.226;2022-09-27T10:50:58;11.20;99.90
21950;DHT22;11139;51.284;7.226;2022-09-27T10:53:24;11.10;99.90
21950;DHT22;11139;51.284;7.226;2022-09-27T10:55:50;11.20;99.90
21950;DHT22;11139;51.284;7.226;2022-09-27T10:58:26;11.20;99.90
21950;DHT22;11139;51.284;7.226;2022-09-27T11:01:03;11.20;99.90
21950;DHT22;11139;51.284;7.226;2022-09-27T11:03:30;11.20;99.90
21950;DHT22;11139;51.284;7.226;2022-09-27T11:05:57;11.20;99.90
21950;DHT22;11139;51.284;7.226;2022-09-27T11:13:25;11.20;99.90
21950;DHT22;11139;51.284;7.226;2022-09-27T11:21:25;11.20;99.90
21950;DHT22;11139;51.284;7.226;2022-09-27T11:23:58;11.20;99.90
21950;DHT22;11139;51.284;7.226;2022-09-27T11:26:59;11.20;99.90
21950;DHT22;11139;51.284;7.226;2022-09-27T11:31:44;11.20;99.90
21950;DHT22;11139;51.284;7.226;2022-09-27T11:34:23;11.20;99.90
21950;DHT22;11139;51.284;7.226;2022-09-27T11:39:58;11.20;99.90
21950;DHT22;11139;51.284;7.226;2022-09-27T11:50:49;11.20;99.90
21950;DHT22;11139;51.284;7.226;2022-09-27T11:53:29;11.20;99.90
21950;DHT22;11139;51.284;7.226;2022-09-27T11:56:02;11.20;99.90
21950;DHT22;11139;51.284;7.226;2022-09-27T11:58:32;11.20;99.90
21950;DHT22;11139;51.284;7.226;2022-09-27T12:09:06;11.30;99.90
21950;DHT22;11139;51.284;7.226;2022-09-27T12:14:22;11.30;99.90
21950;DHT22;11139;51.284;7.226;2022-09-27T12:16:44;11.30;99.90
21950;DHT22;11139;51.284;7.226;2022-09-27T12:19:16;11.30;99.90
21950;DHT22;11139;51.284;7.226;2022-09-27T12:21:44;11.30;99.90
21950;DHT22;11139;51.284;7.226;2022-09-27T12:24:14;11.30;99.90
21950;DHT22;11139;51.284;7.226;2022-09-27T12:26:42;11.20;99.90
21950;DHT22;11139;51.284;7.226;2022-09-27T12:29:19;11.30;99.90
21950;DHT22;11139;51.284;7.226;2022-09-27T12:31:48;11.30;99.90
21950;DHT22;11139;51.284;7.226;2022-09-27T12:34:25;11.30;99.90
21950;DHT22;11139;51.284;7.226;2022-09-27T12:37:13;11.30;99.90
21950;DHT22;11139;51.284;7.226;2022-09-27T12:39:48;11.30;99.90
21950;DHT22;11139;51.284;7.226;2022-09-27T12:42:19;11.30;99.90
21950;DHT22;11139;51.284;7.226;2022-09-27T12:44:45;11.30;99.90
21950;DHT22;11139;51.284;7.226;2022-09-27T12:52:21;11.30;99.90
21950;DHT22;11139;51.284;7.226;2022-09-27T12:54:54;11.30;99.90
21950;DHT22;11139;51.284;7.226;2022-09-27T13:05:28;11.30;99.90
21950;DHT22;11139;51.284;7.226;2022-09-27T13:12:52;11.30;99.90
21950;DHT22;11139;51.284;7.226;2022-09-27T13:15:26;11.20;99.90
21950;DHT22;11139;51.284;7.226;2022-09-27T13:17:54;11.20;99.90
21950;DHT22;11139;51.284;7.226;2022-09-27T13:22:52;11.20;99.90
21950;DHT22;11139;51.284;7.226;2022-09-27T13:28:22;11.20;99.90
21950;DHT22;11139;51.284;7.226;2022-09-27T13:30:49;11.20;99.90
21950;DHT22;11139;51.284;7.226;2022-09-27T13:35:41;11.20;99.90
21950;DHT22;11139;51.284;7.226;2022-09-27T13:38:20;11.20;99.90
21950;DHT22;11139;51.284;7.226;2022-09-27T13:40:46;11.20;99.90
21950;DHT22;11139;51.284;7.226;2022-09-27T13:45:41;11.10;99.90
21950;DHT22;11139;51.284;7.226;2022-09-27T13:48:15;11.10;99.90
21950;DHT22;11139;51.284;7.226;2022-09-27T13:50:47;11.10;99.90
21950;DHT22;11139;51.284;7.226;2022-09-27T13:55:45;11.20;99.90
21950;DHT22;11139;51.284;7.226;2022-09-27T13:58:13;11.10;99.90
21950;DHT22;11139;51.284;7.226;2022-09-27T14:00:40;11.10;99.90
21950;DHT22;11139;51.284;7.226;2022-09-27T14:05:56;11.10;99.90
21950;DHT22;11139;51.284;7.226;2022-09-27T14:11:11;11.10;99.90
21950;DHT22;11139;51.284;7.226;2022-09-27T14:13:37;11.20;99.90
21950;DHT22;11139;51.284;7.226;2022-09-27T14:16:03;11.20;99.90
21950;DHT22;11139;51.284;7.226;2022-09-27T14:18:29;11.20;99.90
21950;DHT22;11139;51.284;7.226;2022-09-27T14:23:33;11.20;99.90
21950;DHT22;11139;51.284;7.226;2022-09-27T14:25:59;11.20;99.90
21950;DHT22;11139;51.284;7.226;2022-09-27T14:28:26;11.20;99.90
21950;DHT22;11139;51.284;7.226;2022-09-27T14:33:31;11.20;99.90
21950;DHT22;11139;51.284;7.226;2022-09-27T14:35:58;11.20;99.90
21950;DHT22;11139;51.284;7.226;2022-09-27T14:38:43;11.20;99.90
21950;DHT22;11139;51.284;7.226;2022-09-27T14:41:09;11.20;99.90
21950;DHT22;11139;51.284;7.226;2022-09-27T14:43:35;11.20;99.90
21950;DHT22;11139;51.284;7.226;2022-09-27T14:46:05;11.20;99.90
21950;DHT22;11139;51.284;7.226;2022-09-27T14:48:35;11.20;99.90
21950;DHT22;11139;51.284;7.226;2022-09-27T14:51:02;11.20;99.90
21950;DHT22;11139;51.284;7.226;2022-09-27T14:53:30;11.20;99.90
21950;DHT22;11139;51.284;7.226;2022-09-27T14:55:56;11.20;99.90
21950;DHT22;11139;51.284;7.226;2022-09-27T14:58:22;11.20;99.90
21950;DHT22;11139;51.284;7.226;2022-09-27T15:00:50;11.20;99.90
21950;DHT22;11139;51.284;7.226;2022-09-27T15:03:22;11.20;99.90
21950;DHT22;11139;51.284;7.226;2022-09-27T15:05:49;11.20;99.90
21950;DHT22;11139;51.284;7.226;2022-09-27T15:08:14;11.20;99.90
21950;DHT22;11139;51.284;7.226;2022-09-27T15:10:41;11.20;99.90
21950;DHT22;11139;51.284;7.226;2022-09-27T15:13:10;11.20;99.90
21950;DHT22;11139;51.284;7.226;2022-09-27T15:15:38;11.20;99.90
21950;DHT22;11139;51.284;7.226;2022-09-27T15:20:52;11.20;99.90
21950;DHT22;11139;51.284;7.226;2022-09-27T15:23:24;11.20;99.90
21950;DHT22;11139;51.284;7.226;2022-09-27T15:26:02;11.20;99.90
21950;DHT22;11139;51.284;7.226;2022-09-27T15:28:29;11.20;99.90
21950;DHT22;11139;51.284;7.226;2022-09-27T15:30:55;11.20;99.90
21950;DHT22;11139;51.284;7.226;2022-09-27T15:33:25;11.20;99.90
21950;DHT22;11139;51.284;7.226;2022-09-27T15:35:55;11.20;99.90
21950;DHT22;11139;51.284;7.226;2022-09-27T15:46:03;11.20;99.90
21950;DHT22;11139;51.284;7.226;2022-09-27T15:48:30;11.20;99.90
21950;DHT22;11139;51.284;7.226;2022-09-27T15:50:56;11.20;99.90
21950;DHT22;11139;51.284;7.226;2022-09-27T15:55:57;11.20;99.90
21950;DHT22;11139;51.284;7.226;2022-09-27T15:58:23;11.20;99.90
21950;DHT22;11139;51.284;7.226;2022-09-27T16:00:52;11.20;99.90
21950;DHT22;11139;51.284;7.226;2022-09-27T16:03:18;11.20;99.90
21950;DHT22;11139;51.284;7.226;2022-09-27T16:05:44;11.20;99.90
21950;DHT22;11139;51.284;7.226;2022-09-27T16:08:10;11.20;99.90
21950;DHT22;11139;51.284;7.226;2022-09-27T16:10:40;11.10;99.90
21950;DHT22;11139;51.284;7.226;2022-09-27T16:13:06;11.10;99.90
21950;DHT22;11139;51.284;7.226;2022-09-27T16:15:32;11.10;99.90
21950;DHT22;11139;51.284;7.226;2022-09-27T16:17:57;11.10;99.90
21950;DHT22;11139;51.284;7.226;2022-09-27T16:20:24;11.10;99.90
21950;DHT22;11139;51.284;7.226;2022-09-27T16:22:52;11.10;99.90
21950;DHT22;11139;51.284;7.226;2022-09-27T16:25:18;11.10;99.90
21950;DHT22;11139;51.284;7.226;2022-09-27T16:27:44;11.10;99.90
21950;DHT22;11139;51.284;7.226;2022-09-27T16:30:09;11.10;99.90
21950;DHT22;11139;51.284;7.226;2022-09-27T16:32:39;11.10;99.90
21950;DHT22;11139;51.284;7.226;2022-09-27T16:35:05;11.10;99.90
21950;DHT22;11139;51.284;7.226;2022-09-27T16:37:32;11.10;99.90
21950;DHT22;11139;51.284;7.226;2022-09-27T16:39:57;11.10;99.90
21950;DHT22;11139;51.284;7.226;2022-09-27T16:42:23;11.10;99.90
21950;DHT22;11139;51.284;7.226;2022-09-27T16:44:49;11.10;99.90
21950;DHT22;11139;51.284;7.226;2022-09-27T16:47:15;11.10;99.90
21950;DHT22;11139;51.284;7.226;2022-09-27T16:49:40;11.10;99.90
21950;DHT22;11139;51.284;7.226;2022-09-27T16:52:24;11.10;99.90
21950;DHT22;11139;51.284;7.226;2022-09-27T16:54:50;11.10;99.90
21950;DHT22;11139;51.284;7.226;2022-09-27T16:57:15;11.10;99.90
21950;DHT22;11139;51.284;7.226;2022-09-27T16:59:41;11.00;99.90
21950;DHT22;11139;51.284;7.226;2022-09-27T17:02:07;11.10;99.90
21950;DHT22;11139;51.284;7.226;2022-09-27T17:04:33;11.00;99.90
21950;DHT22;11139;51.284;7.226;2022-09-27T17:06:58;11.00;99.90
21950;DHT22;11139;51.284;7.226;2022-09-27T17:09:25;10.90;99.90
21950;DHT22;11139;51.284;7.226;2022-09-27T17:11:50;10.90;99.90
21950;DHT22;11139;51.284;7.226;2022-09-27T17:14:16;10.90;99.90
21950;DHT22;11139;51.284;7.226;2022-09-27T17:16:42;10.90;99.90
21950;DHT22;11139;51.284;7.226;2022-09-27T17:19:08;10.90;99.90
21950;DHT22;11139;51.284;7.226;2022-09-27T17:21:34;10.90;99.90
21950;DHT22;11139;51.284;7.226;2022-09-27T17:24:00;11.00;99.90
21950;DHT22;11139;51.284;7.226;2022-09-27T17:26:26;11.00;99.90
21950;DHT22;11139;51.284;7.226;2022-09-27T17:28:55;11.00;99.90
21950;DHT22;11139;51.284;7.226;2022-09-27T17:31:21;11.00;99.90
21950;DHT22;11139;51.284;7.226;2022-09-27T17:33:48;11.00;99.90
21950;DHT22;11139;51.284;7.226;2022-09-27T17:36:33;11.00;99.90
21950;DHT22;11139;51.284;7.226;2022-09-27T17:38:59;11.00;99.90
21950;DHT22;11139;51.284;7.226;2022-09-27T17:41:26;11.00;99.90
21950;DHT22;11139;51.284;7.226;2022-09-27T17:43:52;11.00;99.90
21950;DHT22;11139;51.284;7.226;2022-09-27T17:46:23;11.00;99.90
21950;DHT22;11139;51.284;7.226;2022-09-27T17:48:48;11.00;99.90
21950;DHT22;11139;51.284;7.226;2022-09-27T17:51:34;11.00;99.90
21950;DHT22;11139;51.284;7.226;2022-09-27T17:54:00;11.00;99.90
21950;DHT22;11139;51.284;7.226;2022-09-27T17:56:25;11.00;99.90
21950;DHT22;11139;51.284;7.226;2022-09-27T17:58:52;11.00;99.90
21950;DHT22;11139;51.284;7.226;2022-09-27T18:01:18;11.00;99.90
21950;DHT22;11139;51.284;7.226;2022-09-27T18:03:44;11.00;99.90
21950;DHT22;11139;51.284;7.226;2022-09-27T18:06:11;11.00;99.90
21950;DHT22;11139;51.284;7.226;2022-09-27T18:08:37;11.00;99.90
21950;DHT22;11139;51.284;7.226;2022-09-27T18:11:04;11.00;99.90
21950;DHT22;11139;51.284;7.226;2022-09-27T18:13:29;11.00;99.90
21950;DHT22;11139;51.284;7.226;2022-09-27T18:15:56;11.00;99.90
21950;DHT22;11139;51.284;7.226;2022-09-27T18:18:24;11.00;99.90
21950;DHT22;11139;51.284;7.226;2022-09-27T18:20:52;11.00;99.90
21950;DHT22;11139;51.284;7.226;2022-09-27T18:23:17;11.00;99.90